sensor_id;sensor_type;location;lat;lon;timestamp;temperature;humidity
12841;DHT22;6487;48.626;12.486;2022-12-08T00:02:00;3.70;99.90
12841;DHT22;6487;48.626;12.486;2022-12-08T00:04:29;3.60;99.90
12841;DHT22;6487;48.626;12.486;2022-12-08T00:07:19;3.70;99.90
12841;DHT22;6487;48.626;12.486;2022-12-08T00:10:06;3.60;99.90
12841;DHT22;6487;48.626;12.486;2022-12-08T00:12:55;3.70;99.90
12841;DHT22;6487;48.626;12.486;2022-12-08T00:15:24;3.60;99.90
12841;DHT22;6487;48.626;12.486;2022-12-08T00:17:52;3.60;99.90
12841;DHT22;6487;48.626;12.486;2022-12-08T00:20:20;3.60;99.90
12841;DHT22;6487;48.626;12.486;2022-12-08T00:22:50;3.50;99.90
12841;DHT22;6487;48.626;12.486;2022-12-08T00:25:18;3.50;99.90
12841;DHT22;6487;48.626;12.486;2022-12-08T00:27:46;3.50;99.90
12841;DHT22;6487;48.626;12.486;2022-12-08T00:30:15;3.60;99.90
12841;DHT22;6487;48.626;12.486;2022-12-08T00:32:43;3.60;99.90
12841;DHT22;6487;48.626;12.486;2022-12-08T00:35:12;3.60;99.90
12841;DHT22;6487;48.626;12.486;2022-12-08T00:37:40;3.60;99.90
12841;DHT22;6487;48.626;12.486;2022-12-08T00:40:10;3.60;99.90
12841;DHT22;6487;48.626;12.486;2022-12-08T00:42:38;3.50;99.90
12841;DHT22;6487;48.626;12.486;2022-12-08T00:45:07;3.40;99.90
12841;DHT22;6487;48.626;12.486;2022-12-08T00:47:36;3.60;99.90
12841;DHT22;6487;48.626;12.486;2022-12-08T00:50:06;3.50;99.90
12841;DHT22;6487;48.626;12.486;2022-12-08T00:52:34;3.40;99.90
12841;DHT22;6487;48.626;12.486;2022-12-08T00:55:03;3.40;99.90
12841;DHT22;6487;48.626;12.486;2022-12-08T00:57:34;3.40;99.90
12841;DHT22;6487;48.626;12.486;2022-12-08T01:00:03;3.50;99.90
12841;DHT22;6487;48.626;12.486;2022-12-08T01:02:32;3.50;99.90
12841;DHT22;6487;48.626;12.486;2022-12-08T01:05:01;3.50;99.90
12841;DHT22;6487;48.626;12.486;2022-12-08T01:07:29;3.50;99.90
12841;DHT22;6487;48.626;12.486;2022-12-08T01:09:58;3.50;99.90
12841;DHT22;6487;48.626;12.486;2022-12-08T01:12:28;3.50;99.90
12841;DHT22;6487;48.626;12.486;2022-12-08T01:14:58;3.50;99.90
12841;DHT22;6487;48.626;12.486;2022-12-08T01:17:28;3.50;99.90
12841;DHT22;6487;48.626;12.486;2022-12-08T01:19:56;3.50;99.90
12841;DHT22;6487;48.626;12.486;2022-12-08T01:22:25;3.50;99.90
12841;DHT22;6487;48.626;12.486;2022-12-08T01:24:53;3.40;99.90
12841;DHT22;6487;48.626;12.486;2022-12-08T01:27:21;3.50;99.90
12841;DHT22;6487;48.626;12.486;2022-12-08T01:29:50;3.30;99.90
12841;DHT22;6487;48.626;12.486;2022-12-08T01:32:19;3.30;99.90
12841;DHT22;6487;48.626;12.486;2022-12-08T01:34:48;3.30;99.90
12841;DHT22;6487;48.626;12.486;2022-12-08T01:37:16;3.30;99.90
12841;DHT22;6487;48.626;12.486;2022-12-08T01:39:44;3.40;99.90
12841;DHT22;6487;48.626;12.486;2022-12-08T01:42:19;3.40;99.90
12841;DHT22;6487;48.626;12.486;2022-12-08T01:44:53;3.40;99.90
12841;DHT22;6487;48.626;12.486;2022-12-08T01:47:31;3.30;99.90
12841;DHT22;6487;48.626;12.486;2022-12-08T01:50:05;3.30;99.90
12841;DHT22;6487;48.626;12.486;2022-12-08T01:52:38;3.10;99.90
12841;DHT22;6487;48.626;12.486;2022-12-08T01:55:11;3.00;99.90
12841;DHT22;6487;48.626;12.486;2022-12-08T01:57:46;3.10;99.90
12841;DHT22;6487;48.626;12.486;2022-12-08T02:00:18;3.20;99.90
12841;DHT22;6487;48.626;12.486;2022-12-08T02:02:56;3.10;99.90
12841;DHT22;6487;48.626;12.486;2022-12-08T02:05:28;3.10;99.90
12841;DHT22;6487;48.626;12.486;2022-12-08T02:08:00;3.20;99.90
12841;DHT22;6487;48.626;12.486;2022-12-08T02:10:34;3.10;99.90
12841;DHT22;6487;48.626;12.486;2022-12-08T02:13:06;3.00;99.90
12841;DHT22;6487;48.626;12.486;2022-12-08T02:15:52;3.20;99.90
12841;DHT22;6487;48.626;12.486;2022-12-08T02:18:39;3.10;99.90
12841;DHT22;6487;48.626;12.486;2022-12-08T02:21:38;3.00;99.90
12841;DHT22;6487;48.626;12.486;2022-12-08T02:24:16;3.10;99.90
12841;DHT22;6487;48.626;12.486;2022-12-08T02:27:19;3.00;99.90
12841;DHT22;6487;48.626;12.486;2022-12-08T02:30:10;3.00;99.90
12841;DHT22;6487;48.626;12.486;2022-12-08T02:33:08;3.00;99.90
12841;DHT22;6487;48.626;12.486;2022-12-08T02:35:58;3.10;99.90
12841;DHT22;6487;48.626;12.486;2022-12-08T02:38:40;3.10;99.90
12841;DHT22;6487;48.626;12.486;2022-12-08T02:41:22;3.20;99.90
12841;DHT22;6487;48.626;12.486;2022-12-08T02:43:57;3.10;99.90
12841;DHT22;6487;48.626;12.486;2022-12-08T02:46:32;3.10;99.90
12841;DHT22;6487;48.626;12.486;2022-12-08T02:49:05;3.10;99.90
12841;DHT22;6487;48.626;12.486;2022-12-08T02:51:35;3.20;99.90
12841;DHT22;6487;48.626;12.486;2022-12-08T02:54:03;3.20;99.90
12841;DHT22;6487;48.626;12.486;2022-12-08T02:56:54;3.20;99.90
12841;DHT22;6487;48.626;12.486;2022-12-08T02:59:43;3.10;99.90
12841;DHT22;6487;48.626;12.486;2022-12-08T03:02:41;3.10;99.90
12841;DHT22;6487;48.626;12.486;2022-12-08T03:05:21;3.10;99.90
12841;DHT22;6487;48.626;12.486;2022-12-08T03:08:02;3.10;99.90
12841;DHT22;6487;48.626;12.486;2022-12-08T03:10:41;3.10;99.90
12841;DHT22;6487;48.626;12.486;2022-12-08T03:13:13;2.90;99.90
12841;DHT22;6487;48.626;12.486;2022-12-08T03:15:45;2.90;99.90
12841;DHT22;6487;48.626;12.486;2022-12-08T03:18:17;3.00;99.90
12841;DHT22;6487;48.626;12.486;2022-12-08T03:20:46;3.10;99.90
12841;DHT22;6487;48.626;12.486;2022-12-08T03:23:18;3.10;99.90
12841;DHT22;6487;48.626;12.486;2022-12-08T03:25:52;3.10;99.90
12841;DHT22;6487;48.626;12.486;2022-12-08T03:28:24;3.10;99.90
12841;DHT22;6487;48.626;12.486;2022-12-08T03:30:55;3.20;99.90
12841;DHT22;6487;48.626;12.486;2022-12-08T03:33:29;3.10;99.90
12841;DHT22;6487;48.626;12.486;2022-12-08T03:36:00;3.20;99.90
12841;DHT22;6487;48.626;12.486;2022-12-08T03:38:38;3.20;99.90
12841;DHT22;6487;48.626;12.486;2022-12-08T03:41:08;3.20;99.90
12841;DHT22;6487;48.626;12.486;2022-12-08T03:43:46;3.20;99.90
12841;DHT22;6487;48.626;12.486;2022-12-08T03:46:16;3.30;99.90
12841;DHT22;6487;48.626;12.486;2022-12-08T03:48:45;3.20;99.90
12841;DHT22;6487;48.626;12.486;2022-12-08T03:51:13;3.20;99.90
12841;DHT22;6487;48.626;12.486;2022-12-08T03:53:44;3.20;99.90
12841;DHT22;6487;48.626;12.486;2022-12-08T03:56:25;3.20;99.90
12841;DHT22;6487;48.626;12.486;2022-12-08T03:58:55;3.20;99.90
12841;DHT22;6487;48.626;12.486;2022-12-08T04:01:24;3.00;99.90
12841;DHT22;6487;48.626;12.486;2022-12-08T04:03:53;3.10;99.90
12841;DHT22;6487;48.626;12.486;2022-12-08T04:06:21;3.10;99.90
12841;DHT22;6487;48.626;12.486;2022-12-08T04:08:51;3.20;99.90
12841;DHT22;6487;48.626;12.486;2022-12-08T04:11:20;3.10;99.90
12841;DHT22;6487;48.626;12.486;2022-12-08T04:13:48;3.00;99.90
12841;DHT22;6487;48.626;12.486;2022-12-08T04:16:18;3.10;99.90
12841;DHT22;6487;48.626;12.486;2022-12-08T04:18:47;3.00;99.90
12841;DHT22;6487;48.626;12.486;2022-12-08T04:21:16;3.00;99.90
12841;DHT22;6487;48.626;12.486;2022-12-08T04:23:45;3.00;99.90
12841;DHT22;6487;48.626;12.486;2022-12-08T04:26:15;3.10;99.90
12841;DHT22;6487;48.626;12.486;2022-12-08T04:28:44;3.10;99.90
12841;DHT22;6487;48.626;12.486;2022-12-08T04:31:12;3.10;99.90
12841;DHT22;6487;48.626;12.486;2022-12-08T04:33:41;3.00;99.90
12841;DHT22;6487;48.626;12.486;2022-12-08T04:36:09;3.00;99.90
12841;DHT22;6487;48.626;12.486;2022-12-08T04:38:38;3.10;99.90
12841;DHT22;6487;48.626;12.486;2022-12-08T04:41:06;3.10;99.90
12841;DHT22;6487;48.626;12.486;2022-12-08T04:43:36;2.90;99.90
12841;DHT22;6487;48.626;12.486;2022-12-08T04:46:05;2.90;99.90
12841;DHT22;6487;48.626;12.486;2022-12-08T04:48:36;3.00;99.90
12841;DHT22;6487;48.626;12.486;2022-12-08T04:51:06;3.00;99.90
12841;DHT22;6487;48.626;12.486;2022-12-08T04:53:35;3.10;99.90
12841;DHT22;6487;48.626;12.486;2022-12-08T04:56:11;3.00;99.90
12841;DHT22;6487;48.626;12.486;2022-12-08T04:58:41;3.00;99.90
12841;DHT22;6487;48.626;12.486;2022-12-08T05:01:10;3.00;99.90
12841;DHT22;6487;48.626;12.486;2022-12-08T05:03:39;2.90;99.90
12841;DHT22;6487;48.626;12.486;2022-12-08T05:06:09;2.90;99.90
12841;DHT22;6487;48.626;12.486;2022-12-08T05:08:39;3.00;99.90
12841;DHT22;6487;48.626;12.486;2022-12-08T05:11:09;2.90;99.90
12841;DHT22;6487;48.626;12.486;2022-12-08T05:13:38;2.90;99.90
12841;DHT22;6487;48.626;12.486;2022-12-08T05:16:09;2.90;99.90
12841;DHT22;6487;48.626;12.486;2022-12-08T05:18:40;2.70;99.90
12841;DHT22;6487;48.626;12.486;2022-12-08T05:21:09;2.80;99.90
12841;DHT22;6487;48.626;12.486;2022-12-08T05:23:38;2.80;99.90
12841;DHT22;6487;48.626;12.486;2022-12-08T05:26:06;2.50;99.90
12841;DHT22;6487;48.626;12.486;2022-12-08T05:28:34;2.40;99.90
12841;DHT22;6487;48.626;12.486;2022-12-08T05:31:10;2.50;99.90
12841;DHT22;6487;48.626;12.486;2022-12-08T05:33:40;2.50;99.90
12841;DHT22;6487;48.626;12.486;2022-12-08T05:36:09;2.50;99.90
12841;DHT22;6487;48.626;12.486;2022-12-08T05:38:39;2.40;99.90
12841;DHT22;6487;48.626;12.486;2022-12-08T05:41:09;2.20;99.90
12841;DHT22;6487;48.626;12.486;2022-12-08T05:43:39;2.20;99.90
12841;DHT22;6487;48.626;12.486;2022-12-08T05:46:08;2.20;99.90
12841;DHT22;6487;48.626;12.486;2022-12-08T05:48:38;2.20;99.90
12841;DHT22;6487;48.626;12.486;2022-12-08T05:51:15;2.20;99.90
12841;DHT22;6487;48.626;12.486;2022-12-08T05:53:45;2.40;99.90
12841;DHT22;6487;48.626;12.486;2022-12-08T05:56:15;2.40;99.90
12841;DHT22;6487;48.626;12.486;2022-12-08T05:58:43;2.30;99.90
12841;DHT22;6487;48.626;12.486;2022-12-08T06:01:20;2.20;99.90
12841;DHT22;6487;48.626;12.486;2022-12-08T06:03:48;2.20;99.90
12841;DHT22;6487;48.626;12.486;2022-12-08T06:06:17;2.20;99.90
12841;DHT22;6487;48.626;12.486;2022-12-08T06:08:45;2.20;99.90
12841;DHT22;6487;48.626;12.486;2022-12-08T06:11:17;2.00;99.90
12841;DHT22;6487;48.626;12.486;2022-12-08T06:13:46;2.10;99.90
12841;DHT22;6487;48.626;12.486;2022-12-08T06:16:15;2.20;99.90
12841;DHT22;6487;48.626;12.486;2022-12-08T06:18:45;2.20;99.90
12841;DHT22;6487;48.626;12.486;2022-12-08T06:21:15;2.30;99.90
12841;DHT22;6487;48.626;12.486;2022-12-08T06:23:46;2.40;99.90
12841;DHT22;6487;48.626;12.486;2022-12-08T06:26:16;2.40;99.90
12841;DHT22;6487;48.626;12.486;2022-12-08T06:28:45;2.10;99.90
12841;DHT22;6487;48.626;12.486;2022-12-08T06:31:15;2.30;99.90
12841;DHT22;6487;48.626;12.486;2022-12-08T06:33:46;2.40;99.90
12841;DHT22;6487;48.626;12.486;2022-12-08T06:36:17;2.20;99.90
12841;DHT22;6487;48.626;12.486;2022-12-08T06:38:47;2.20;99.90
12841;DHT22;6487;48.626;12.486;2022-12-08T06:41:16;2.20;99.90
12841;DHT22;6487;48.626;12.486;2022-12-08T06:43:44;2.30;99.90
12841;DHT22;6487;48.626;12.486;2022-12-08T06:46:14;2.30;99.90
12841;DHT22;6487;48.626;12.486;2022-12-08T06:48:45;2.30;99.90
12841;DHT22;6487;48.626;12.486;2022-12-08T06:51:16;2.40;99.90
12841;DHT22;6487;48.626;12.486;2022-12-08T06:53:45;2.40;99.90
12841;DHT22;6487;48.626;12.486;2022-12-08T06:56:14;2.30;99.90
12841;DHT22;6487;48.626;12.486;2022-12-08T06:58:46;2.40;99.90
12841;DHT22;6487;48.626;12.486;2022-12-08T07:01:18;2.40;99.90
12841;DHT22;6487;48.626;12.486;2022-12-08T07:03:48;2.30;99.90
12841;DHT22;6487;48.626;12.486;2022-12-08T07:06:19;2.40;99.90
12841;DHT22;6487;48.626;12.486;2022-12-08T07:08:49;2.50;99.90
12841;DHT22;6487;48.626;12.486;2022-12-08T07:11:18;2.40;99.90
12841;DHT22;6487;48.626;12.486;2022-12-08T07:13:48;2.60;99.90
12841;DHT22;6487;48.626;12.486;2022-12-08T07:16:17;2.50;99.90
12841;DHT22;6487;48.626;12.486;2022-12-08T07:18:47;2.50;99.90
12841;DHT22;6487;48.626;12.486;2022-12-08T07:21:17;2.60;99.90
12841;DHT22;6487;48.626;12.486;2022-12-08T07:23:46;2.40;99.90
12841;DHT22;6487;48.626;12.486;2022-12-08T07:26:23;2.40;99.90
12841;DHT22;6487;48.626;12.486;2022-12-08T07:28:52;2.50;99.90
12841;DHT22;6487;48.626;12.486;2022-12-08T07:31:22;2.60;99.90
12841;DHT22;6487;48.626;12.486;2022-12-08T07:33:54;2.60;99.90
12841;DHT22;6487;48.626;12.486;2022-12-08T07:36:24;2.60;99.90
12841;DHT22;6487;48.626;12.486;2022-12-08T07:38:53;2.60;99.90
12841;DHT22;6487;48.626;12.486;2022-12-08T07:41:23;2.70;99.90
12841;DHT22;6487;48.626;12.486;2022-12-08T07:43:52;2.70;99.90
12841;DHT22;6487;48.626;12.486;2022-12-08T07:46:22;2.80;99.90
12841;DHT22;6487;48.626;12.486;2022-12-08T07:48:53;2.80;99.90
12841;DHT22;6487;48.626;12.486;2022-12-08T07:51:22;2.80;99.90
12841;DHT22;6487;48.626;12.486;2022-12-08T07:53:51;2.80;99.90
12841;DHT22;6487;48.626;12.486;2022-12-08T07:56:21;2.90;99.90
12841;DHT22;6487;48.626;12.486;2022-12-08T07:58:49;3.00;99.90
12841;DHT22;6487;48.626;12.486;2022-12-08T08:01:20;3.00;99.90
12841;DHT22;6487;48.626;12.486;2022-12-08T08:03:49;2.90;99.90
12841;DHT22;6487;48.626;12.486;2022-12-08T08:06:19;2.90;99.90
12841;DHT22;6487;48.626;12.486;2022-12-08T08:08:48;2.90;99.90
12841;DHT22;6487;48.626;12.486;2022-12-08T08:11:16;3.00;99.90
12841;DHT22;6487;48.626;12.486;2022-12-08T08:13:47;3.00;99.90
12841;DHT22;6487;48.626;12.486;2022-12-08T08:16:17;3.00;99.90
12841;DHT22;6487;48.626;12.486;2022-12-08T08:18:46;3.10;99.90
12841;DHT22;6487;48.626;12.486;2022-12-08T08:21:16;3.10;99.90
12841;DHT22;6487;48.626;12.486;2022-12-08T08:24:07;3.10;99.90
12841;DHT22;6487;48.626;12.486;2022-12-08T08:26:36;3.00;99.90
12841;DHT22;6487;48.626;12.486;2022-12-08T08:29:07;3.10;99.90
12841;DHT22;6487;48.626;12.486;2022-12-08T08:31:45;3.20;99.90
12841;DHT22;6487;48.626;12.486;2022-12-08T08:34:14;3.30;99.90
12841;DHT22;6487;48.626;12.486;2022-12-08T08:36:44;3.40;99.90
12841;DHT22;6487;48.626;12.486;2022-12-08T08:39:12;3.50;99.90
12841;DHT22;6487;48.626;12.486;2022-12-08T08:41:41;3.50;99.90
12841;DHT22;6487;48.626;12.486;2022-12-08T08:44:09;3.50;99.90
12841;DHT22;6487;48.626;12.486;2022-12-08T08:46:40;3.50;99.90
12841;DHT22;6487;48.626;12.486;2022-12-08T08:49:08;3.50;99.90
12841;DHT22;6487;48.626;12.486;2022-12-08T08:51:36;3.50;99.90
12841;DHT22;6487;48.626;12.486;2022-12-08T08:54:06;3.40;99.90
12841;DHT22;6487;48.626;12.486;2022-12-08T08:56:34;3.50;99.90
12841;DHT22;6487;48.626;12.486;2022-12-08T08:59:03;3.50;99.90
12841;DHT22;6487;48.626;12.486;2022-12-08T09:01:31;3.60;99.90
12841;DHT22;6487;48.626;12.486;2022-12-08T09:04:01;3.70;99.90
12841;DHT22;6487;48.626;12.486;2022-12-08T09:06:29;3.70;99.90
12841;DHT22;6487;48.626;12.486;2022-12-08T09:08:57;3.80;99.90
12841;DHT22;6487;48.626;12.486;2022-12-08T09:11:27;3.80;99.90
12841;DHT22;6487;48.626;12.486;2022-12-08T09:13:55;3.80;99.90
12841;DHT22;6487;48.626;12.486;2022-12-08T09:16:24;3.80;99.90
12841;DHT22;6487;48.626;12.486;2022-12-08T09:18:52;3.80;99.90
12841;DHT22;6487;48.626;12.486;2022-12-08T09:21:23;3.90;99.90
12841;DHT22;6487;48.626;12.486;2022-12-08T09:23:54;3.90;99.90
12841;DHT22;6487;48.626;12.486;2022-12-08T09:26:25;4.00;99.90
12841;DHT22;6487;48.626;12.486;2022-12-08T09:28:55;3.90;99.90
12841;DHT22;6487;48.626;12.486;2022-12-08T09:31:24;4.00;99.90
12841;DHT22;6487;48.626;12.486;2022-12-08T09:33:53;4.00;99.90
12841;DHT22;6487;48.626;12.486;2022-12-08T09:36:21;4.00;99.90
12841;DHT22;6487;48.626;12.486;2022-12-08T09:38:50;4.10;99.90
12841;DHT22;6487;48.626;12.486;2022-12-08T09:41:26;4.10;99.90
12841;DHT22;6487;48.626;12.486;2022-12-08T09:44:33;4.20;99.90
12841;DHT22;6487;48.626;12.486;2022-12-08T09:47:20;4.20;99.90
12841;DHT22;6487;48.626;12.486;2022-12-08T09:50:00;4.30;99.90
12841;DHT22;6487;48.626;12.486;2022-12-08T09:52:38;4.20;99.90
12841;DHT22;6487;48.626;12.486;2022-12-08T09:55:16;4.20;99.90
12841;DHT22;6487;48.626;12.486;2022-12-08T09:57:56;4.20;99.90
12841;DHT22;6487;48.626;12.486;2022-12-08T10:00:28;4.20;99.90
12841;DHT22;6487;48.626;12.486;2022-12-08T10:02:56;4.20;99.90
12841;DHT22;6487;48.626;12.486;2022-12-08T10:05:26;4.20;99.90
12841;DHT22;6487;48.626;12.486;2022-12-08T10:08:04;4.30;99.90
12841;DHT22;6487;48.626;12.486;2022-12-08T10:10:48;4.30;99.90
12841;DHT22;6487;48.626;12.486;2022-12-08T10:13:28;4.30;99.90
12841;DHT22;6487;48.626;12.486;2022-12-08T10:16:10;4.30;99.90
12841;DHT22;6487;48.626;12.486;2022-12-08T10:18:56;4.30;99.90
12841;DHT22;6487;48.626;12.486;2022-12-08T10:21:29;4.40;99.90
12841;DHT22;6487;48.626;12.486;2022-12-08T10:24:04;4.50;99.90
12841;DHT22;6487;48.626;12.486;2022-12-08T10:26:39;4.50;99.90
12841;DHT22;6487;48.626;12.486;2022-12-08T10:29:11;4.50;99.90
12841;DHT22;6487;48.626;12.486;2022-12-08T10:31:40;4.50;99.90
12841;DHT22;6487;48.626;12.486;2022-12-08T10:34:15;4.50;99.90
12841;DHT22;6487;48.626;12.486;2022-12-08T10:36:47;4.30;99.90
12841;DHT22;6487;48.626;12.486;2022-12-08T10:39:29;4.40;99.90
12841;DHT22;6487;48.626;12.486;2022-12-08T10:42:08;4.50;99.90
12841;DHT22;6487;48.626;12.486;2022-12-08T10:45:08;4.60;99.90
12841;DHT22;6487;48.626;12.486;2022-12-08T10:47:56;4.60;99.90
12841;DHT22;6487;48.626;12.486;2022-12-08T10:50:32;4.60;99.90
12841;DHT22;6487;48.626;12.486;2022-12-08T10:53:13;4.60;99.90
12841;DHT22;6487;48.626;12.486;2022-12-08T10:55:44;4.60;99.90
12841;DHT22;6487;48.626;12.486;2022-12-08T10:58:24;4.80;99.90
12841;DHT22;6487;48.626;12.486;2022-12-08T11:01:01;4.60;99.90
12841;DHT22;6487;48.626;12.486;2022-12-08T11:03:34;4.80;99.90
12841;DHT22;6487;48.626;12.486;2022-12-08T11:06:16;4.80;99.90
12841;DHT22;6487;48.626;12.486;2022-12-08T11:08:48;4.90;99.90
12841;DHT22;6487;48.626;12.486;2022-12-08T11:11:19;4.90;99.90
12841;DHT22;6487;48.626;12.486;2022-12-08T11:13:55;4.80;99.90
12841;DHT22;6487;48.626;12.486;2022-12-08T11:16:24;4.90;99.90
12841;DHT22;6487;48.626;12.486;2022-12-08T11:18:56;5.00;99.90
12841;DHT22;6487;48.626;12.486;2022-12-08T11:21:33;5.10;99.90
12841;DHT22;6487;48.626;12.486;2022-12-08T11:24:20;5.00;99.90
12841;DHT22;6487;48.626;12.486;2022-12-08T11:26:53;5.00;99.90
12841;DHT22;6487;48.626;12.486;2022-12-08T11:29:23;5.10;99.90
12841;DHT22;6487;48.626;12.486;2022-12-08T11:31:57;5.20;99.90
12841;DHT22;6487;48.626;12.486;2022-12-08T11:34:32;5.20;99.90
12841;DHT22;6487;48.626;12.486;2022-12-08T11:37:04;5.00;99.90
12841;DHT22;6487;48.626;12.486;2022-12-08T11:39:47;5.10;99.90
12841;DHT22;6487;48.626;12.486;2022-12-08T11:42:19;5.10;99.90
12841;DHT22;6487;48.626;12.486;2022-12-08T11:44:53;5.10;99.90
12841;DHT22;6487;48.626;12.486;2022-12-08T11:47:27;5.10;99.90
12841;DHT22;6487;48.626;12.486;2022-12-08T11:50:02;5.00;99.90
12841;DHT22;6487;48.626;12.486;2022-12-08T11:52:47;5.00;99.90
12841;DHT22;6487;48.626;12.486;2022-12-08T11:55:28;4.90;99.90
12841;DHT22;6487;48.626;12.486;2022-12-08T11:58:13;5.00;99.90
12841;DHT22;6487;48.626;12.486;2022-12-08T12:00:45;4.90;99.90
12841;DHT22;6487;48.626;12.486;2022-12-08T12:03:22;4.70;99.90
12841;DHT22;6487;48.626;12.486;2022-12-08T12:06:16;4.70;99.90
12841;DHT22;6487;48.626;12.486;2022-12-08T12:09:15;4.70;99.90
12841;DHT22;6487;48.626;12.486;2022-12-08T12:11:56;4.80;99.90
12841;DHT22;6487;48.626;12.486;2022-12-08T12:14:59;4.70;99.90
12841;DHT22;6487;48.626;12.486;2022-12-08T12:17:44;4.70;99.90
12841;DHT22;6487;48.626;12.486;2022-12-08T12:20:20;4.90;99.90
12841;DHT22;6487;48.626;12.486;2022-12-08T12:22:55;4.80;99.90
12841;DHT22;6487;48.626;12.486;2022-12-08T12:25:26;4.80;99.90
12841;DHT22;6487;48.626;12.486;2022-12-08T12:27:58;4.70;99.90
12841;DHT22;6487;48.626;12.486;2022-12-08T12:30:47;4.80;99.90
12841;DHT22;6487;48.626;12.486;2022-12-08T12:33:19;4.80;99.90
12841;DHT22;6487;48.626;12.486;2022-12-08T12:35:51;5.00;99.90
12841;DHT22;6487;48.626;12.486;2022-12-08T12:38:26;5.00;99.90
12841;DHT22;6487;48.626;12.486;2022-12-08T12:41:21;5.20;99.90
12841;DHT22;6487;48.626;12.486;2022-12-08T12:46:54;5.10;99.90
12841;DHT22;6487;48.626;12.486;2022-12-08T12:49:50;5.20;99.70
12841;DHT22;6487;48.626;12.486;2022-12-08T12:52:38;5.30;99.90
12841;DHT22;6487;48.626;12.486;2022-12-08T12:55:25;5.40;99.90
12841;DHT22;6487;48.626;12.486;2022-12-08T12:57:56;5.40;99.90
12841;DHT22;6487;48.626;12.486;2022-12-08T13:00:26;5.40;99.90
12841;DHT22;6487;48.626;12.486;2022-12-08T13:02:56;5.50;99.90
12841;DHT22;6487;48.626;12.486;2022-12-08T13:05:26;5.50;99.90
12841;DHT22;6487;48.626;12.486;2022-12-08T13:08:00;5.60;99.90
12841;DHT22;6487;48.626;12.486;2022-12-08T13:10:32;5.60;99.90
12841;DHT22;6487;48.626;12.486;2022-12-08T13:13:14;5.70;99.70
12841;DHT22;6487;48.626;12.486;2022-12-08T13:15:49;5.70;99.20
12841;DHT22;6487;48.626;12.486;2022-12-08T13:18:20;5.70;99.00
12841;DHT22;6487;48.626;12.486;2022-12-08T13:20:56;5.70;99.50
12841;DHT22;6487;48.626;12.486;2022-12-08T13:23:44;5.60;99.80
12841;DHT22;6487;48.626;12.486;2022-12-08T13:26:18;5.80;99.90
12841;DHT22;6487;48.626;12.486;2022-12-08T13:29:16;5.70;99.90
12841;DHT22;6487;48.626;12.486;2022-12-08T13:31:50;5.50;99.50
12841;DHT22;6487;48.626;12.486;2022-12-08T13:34:24;5.50;99.60
12841;DHT22;6487;48.626;12.486;2022-12-08T13:37:02;5.50;99.50
12841;DHT22;6487;48.626;12.486;2022-12-08T13:39:45;5.60;99.90
12841;DHT22;6487;48.626;12.486;2022-12-08T13:42:21;5.50;99.30
12841;DHT22;6487;48.626;12.486;2022-12-08T13:44:56;5.40;99.40
12841;DHT22;6487;48.626;12.486;2022-12-08T13:47:52;5.30;99.80
12841;DHT22;6487;48.626;12.486;2022-12-08T13:50:46;5.30;99.90
12841;DHT22;6487;48.626;12.486;2022-12-08T13:53:42;5.20;99.90
12841;DHT22;6487;48.626;12.486;2022-12-08T13:56:38;5.40;99.90
12841;DHT22;6487;48.626;12.486;2022-12-08T13:59:28;5.40;99.90
12841;DHT22;6487;48.626;12.486;2022-12-08T14:02:03;5.40;99.90
12841;DHT22;6487;48.626;12.486;2022-12-08T14:04:32;5.40;99.90
12841;DHT22;6487;48.626;12.486;2022-12-08T14:07:21;5.50;99.90
12841;DHT22;6487;48.626;12.486;2022-12-08T14:09:51;5.40;99.90
12841;DHT22;6487;48.626;12.486;2022-12-08T14:12:23;5.30;99.90
12841;DHT22;6487;48.626;12.486;2022-12-08T14:14:57;5.40;99.90
12841;DHT22;6487;48.626;12.486;2022-12-08T14:17:49;5.40;99.90
12841;DHT22;6487;48.626;12.486;2022-12-08T14:20:21;5.40;99.90
12841;DHT22;6487;48.626;12.486;2022-12-08T14:22:52;5.30;99.90
12841;DHT22;6487;48.626;12.486;2022-12-08T14:25:21;5.30;99.90
12841;DHT22;6487;48.626;12.486;2022-12-08T14:27:55;5.40;99.90
12841;DHT22;6487;48.626;12.486;2022-12-08T14:30:29;5.50;99.90
12841;DHT22;6487;48.626;12.486;2022-12-08T14:33:00;5.40;99.90
12841;DHT22;6487;48.626;12.486;2022-12-08T14:35:30;5.50;99.90
12841;DHT22;6487;48.626;12.486;2022-12-08T14:38:01;5.50;99.90
12841;DHT22;6487;48.626;12.486;2022-12-08T14:40:33;5.50;99.90
12841;DHT22;6487;48.626;12.486;2022-12-08T14:43:13;5.40;99.90
12841;DHT22;6487;48.626;12.486;2022-12-08T14:45:48;5.20;99.90
12841;DHT22;6487;48.626;12.486;2022-12-08T14:48:23;5.30;99.90
12841;DHT22;6487;48.626;12.486;2022-12-08T14:51:14;5.40;99.90
12841;DHT22;6487;48.626;12.486;2022-12-08T14:53:51;5.40;99.90
12841;DHT22;6487;48.626;12.486;2022-12-08T14:56:23;5.40;99.90
12841;DHT22;6487;48.626;12.486;2022-12-08T14:59:04;5.50;99.90
12841;DHT22;6487;48.626;12.486;2022-12-08T15:01:37;5.50;99.90
12841;DHT22;6487;48.626;12.486;2022-12-08T15:04:08;5.40;99.90
12841;DHT22;6487;48.626;12.486;2022-12-08T15:06:49;5.40;99.90
12841;DHT22;6487;48.626;12.486;2022-12-08T15:09:29;5.50;99.90
12841;DHT22;6487;48.626;12.486;2022-12-08T15:12:00;5.50;99.90
12841;DHT22;6487;48.626;12.486;2022-12-08T15:14:33;5.40;99.90
12841;DHT22;6487;48.626;12.486;2022-12-08T15:17:03;5.40;99.90
12841;DHT22;6487;48.626;12.486;2022-12-08T15:19:55;5.40;99.90
12841;DHT22;6487;48.626;12.486;2022-12-08T15:22:24;5.50;99.90
12841;DHT22;6487;48.626;12.486;2022-12-08T15:24:53;5.40;99.90
12841;DHT22;6487;48.626;12.486;2022-12-08T15:27:24;5.40;99.90
12841;DHT22;6487;48.626;12.486;2022-12-08T15:29:54;5.40;99.90
12841;DHT22;6487;48.626;12.486;2022-12-08T15:32:22;5.30;99.90
12841;DHT22;6487;48.626;12.486;2022-12-08T15:34:51;5.30;99.90
12841;DHT22;6487;48.626;12.486;2022-12-08T15:37:21;5.30;99.90
12841;DHT22;6487;48.626;12.486;2022-12-08T15:39:50;5.30;99.90
12841;DHT22;6487;48.626;12.486;2022-12-08T15:42:19;5.20;99.90
12841;DHT22;6487;48.626;12.486;2022-12-08T15:44:48;5.10;99.90
12841;DHT22;6487;48.626;12.486;2022-12-08T15:47:20;5.10;99.90
12841;DHT22;6487;48.626;12.486;2022-12-08T15:49:51;4.90;99.90
12841;DHT22;6487;48.626;12.486;2022-12-08T15:52:21;4.60;99.90
12841;DHT22;6487;48.626;12.486;2022-12-08T15:54:50;4.50;99.90
12841;DHT22;6487;48.626;12.486;2022-12-08T15:57:20;4.50;99.90
12841;DHT22;6487;48.626;12.486;2022-12-08T16:00:25;4.60;99.90
12841;DHT22;6487;48.626;12.486;2022-12-08T16:03:22;4.60;99.90
12841;DHT22;6487;48.626;12.486;2022-12-08T16:06:15;4.60;99.90
12841;DHT22;6487;48.626;12.486;2022-12-08T16:09:05;4.40;99.90
12841;DHT22;6487;48.626;12.486;2022-12-08T16:11:39;4.30;99.90
12841;DHT22;6487;48.626;12.486;2022-12-08T16:14:35;4.30;99.90
12841;DHT22;6487;48.626;12.486;2022-12-08T16:17:25;4.40;99.90
12841;DHT22;6487;48.626;12.486;2022-12-08T16:19:55;4.40;99.90
12841;DHT22;6487;48.626;12.486;2022-12-08T16:22:26;4.40;99.90
12841;DHT22;6487;48.626;12.486;2022-12-08T16:25:16;4.40;99.90
12841;DHT22;6487;48.626;12.486;2022-12-08T16:27:47;4.40;99.90
12841;DHT22;6487;48.626;12.486;2022-12-08T16:30:36;4.40;99.90
12841;DHT22;6487;48.626;12.486;2022-12-08T16:33:05;4.40;99.90